SAWG/RGL METAR and TAF weather

Enter ICAO airport designator
Station Type Date Time Source
SAWG METAR 2022/08/12 15:00 UTC NOAA

SAWG 121500Z 32006KT 9999 FEW003 SCT015 BKN100 03/02 Q0989


Station Type Date Time Source
SAWG Decoded METAR 2022/08/12 15:00 UTC NOAA

Rio Gallegos Aerodrome, Argentina (SAWG) 51-37S 069-17W 19M
Aug 12, 2022 - 11:00 AM EDT / 2022.08.12 1500 UTC
Wind: from the NW (320 degrees) at 7 MPH (6 KT):0
Visibility: greater than 7 mile(s):0
Sky conditions: mostly cloudy
Temperature: 37 F (3 C)
Dew Point: 35 F (2 C)
Relative Humidity: 93%
Pressure (altimeter): 29.21 in. Hg (0989 hPa)
ob: SAWG 121500Z 32006KT 9999 FEW003 SCT015 BKN100 03/02 Q0989
cycle: 15

Station Type Date Time Source
SAWG TAF 2022/08/12 12:06 UTC NOAA

TAF SAWG 121100Z 1212/1312 05010KT 9999 SCT004 OVC010 TX05/1218Z TNM03/1309Z
TEMPO 1212/1214 2000 BR OVC004
BECMG 1218/1220 25015KT
BECMG 1301/1303 25015KT FEW025 SCT090

Example: see airport list